Time;durP1;ratioP1;P1;durP2;ratioP2;P2;SDS_P1;SDS_P2;PMS_P1;PMS_P2;Temp;Humidity;BMP_temperature;BMP_pressure;BME280_temperature;BME280_humidity;BME280_pressure;Samples;Min_cycle;Max_cycle;Signal;HPM_P1;HPM_P2
2022/07/04 00:00:18;;;;;;;6.43;1.40;;;16.20;99.90;;;;;;4997174;28;20947;-95
2022/07/04 00:02:46;;;;;;;3.83;1.30;;;16.10;99.90;;;;;;4997685;28;20181;-88
2022/07/04 00:05:12;;;;;;;5.17;1.47;;;16.10;99.90;;;;;;4998652;28;20463;-94
2022/07/04 00:07:43;;;;;;;2.63;1.10;;;16.10;99.90;;;;;;4997692;28;20415;-94
2022/07/04 00:10:11;;;;;;;2.57;0.90;;;16.00;99.90;;;;;;5000395;28;20482;-90
2022/07/04 00:12:37;;;;;;;3.43;0.90;;;16.00;99.90;;;;;;4997218;28;20459;-90
2022/07/04 00:15:04;;;;;;;3.40;0.90;;;16.00;99.90;;;;;;5002109;28;20483;-90
2022/07/04 00:17:29;;;;;;;4.40;1.30;;;15.90;99.90;;;;;;5001202;28;20412;-95
2022/07/04 00:19:55;;;;;;;2.60;1.13;;;15.90;99.90;;;;;;5000267;28;20540;-86
2022/07/04 00:22:20;;;;;;;4.90;1.60;;;15.90;99.90;;;;;;5002225;28;20186;-81
2022/07/04 00:24:46;;;;;;;3.77;1.20;;;15.90;99.90;;;;;;5002753;28;20224;-91
2022/07/04 00:27:11;;;;;;;1.50;1.03;;;15.80;99.90;;;;;;5004296;28;20211;-81
2022/07/04 00:29:37;;;;;;;4.43;1.03;;;15.80;99.90;;;;;;5002356;28;20289;-82
2022/07/04 00:32:03;;;;;;;3.67;1.43;;;15.80;99.90;;;;;;5005405;28;20229;-82
2022/07/04 00:34:28;;;;;;;2.73;0.80;;;15.80;99.90;;;;;;5001570;28;20384;-84
2022/07/04 00:36:54;;;;;;;3.77;0.90;;;15.80;99.90;;;;;;4999123;28;20451;-83
2022/07/04 00:39:20;;;;;;;8.57;1.50;;;15.80;99.90;;;;;;4997806;28;20178;-88
2022/07/04 00:41:46;;;;;;;3.63;0.93;;;15.80;99.90;;;;;;5000784;28;20177;-83
2022/07/04 00:44:13;;;;;;;1.60;0.80;;;15.70;99.90;;;;;;4999903;28;20510;-84
2022/07/04 00:46:39;;;;;;;5.40;1.03;;;15.60;99.90;;;;;;4995942;28;20187;-91
2022/07/04 00:49:06;;;;;;;6.00;0.63;;;15.50;99.90;;;;;;4997107;28;20566;-82
2022/07/04 00:51:32;;;;;;;6.33;1.13;;;15.50;99.90;;;;;;4995710;28;20411;-93
2022/07/04 00:53:58;;;;;;;4.10;1.00;;;15.50;99.90;;;;;;4995529;28;20487;-87
2022/07/04 00:56:25;;;;;;;3.40;1.00;;;15.50;99.90;;;;;;4995657;28;20410;-87
2022/07/04 00:58:52;;;;;;;6.40;1.87;;;15.40;99.90;;;;;;4995663;28;20415;-87
2022/07/04 01:01:19;;;;;;;2.03;1.20;;;15.40;99.90;;;;;;4994163;28;20473;-83
2022/07/04 01:03:44;;;;;;;4.53;1.83;;;15.40;99.90;;;;;;4987864;28;20443;-86
2022/07/04 01:06:13;;;;;;;3.93;0.97;;;15.40;99.90;;;;;;4994842;28;20421;-82
2022/07/04 01:08:41;;;;;;;5.53;1.80;;;15.30;99.90;;;;;;4994548;28;20221;-81
2022/07/04 01:11:07;;;;;;;5.33;1.23;;;15.30;99.90;;;;;;4994676;28;20415;-84
2022/07/04 01:13:32;;;;;;;5.20;1.30;;;15.30;99.90;;;;;;4994953;28;20429;-81
2022/07/04 01:15:58;;;;;;;3.43;1.90;;;15.30;99.90;;;;;;4994498;28;20421;-81
2022/07/04 01:18:23;;;;;;;8.23;2.77;;;15.30;99.90;;;;;;4994479;28;20197;-81
2022/07/04 01:20:49;;;;;;;10.90;2.43;;;15.40;99.90;;;;;;4994461;28;20187;-82
2022/07/04 01:23:15;;;;;;;3.80;2.00;;;15.40;99.90;;;;;;4994296;28;20645;-81
2022/07/04 01:25:42;;;;;;;6.20;3.10;;;15.30;99.90;;;;;;4994717;28;20188;-81
2022/07/04 01:28:07;;;;;;;6.43;4.30;;;15.40;99.90;;;;;;4993194;28;20475;-85
2022/07/04 01:30:35;;;;;;;7.77;3.13;;;15.30;99.90;;;;;;4993017;28;20439;-81
2022/07/04 01:33:00;;;;;;;7.77;3.80;;;15.30;99.90;;;;;;4992950;28;20482;-81
2022/07/04 01:35:26;;;;;;;8.17;4.73;;;15.30;99.90;;;;;;4994315;28;20451;-81
2022/07/04 01:37:51;;;;;;;7.20;3.50;;;15.30;99.90;;;;;;4993705;28;20180;-83
2022/07/04 01:40:17;;;;;;;5.53;3.50;;;15.30;99.90;;;;;;4994107;28;20176;-82
2022/07/04 01:42:43;;;;;;;7.93;5.17;;;15.30;99.90;;;;;;4994346;28;20240;-81
2022/07/04 01:45:09;;;;;;;8.07;3.73;;;15.30;99.90;;;;;;4993818;28;20182;-82
2022/07/04 01:47:36;;;;;;;7.53;4.17;;;15.30;99.90;;;;;;4994479;28;20666;-82
2022/07/04 01:50:02;;;;;;;5.30;3.57;;;15.30;99.90;;;;;;4993682;28;20791;-82
2022/07/04 01:52:27;;;;;;;4.77;2.80;;;15.30;99.90;;;;;;4993440;28;20925;-81
2022/07/04 01:54:53;;;;;;;5.17;3.73;;;15.20;99.90;;;;;;4994149;28;20455;-82
2022/07/04 01:57:18;;;;;;;6.73;5.10;;;15.20;99.90;;;;;;4994002;28;20174;-81
2022/07/04 02:02:31;;;;;;;6.53;4.67;;;15.10;99.90;;;;;;4994078;28;20188;-81
2022/07/04 02:04:57;;;;;;;7.13;5.03;;;15.20;99.90;;;;;;4994153;28;20419;-82
2022/07/04 02:07:22;;;;;;;6.80;4.07;;;15.10;99.90;;;;;;4993615;28;20171;-81
2022/07/04 02:09:48;;;;;;;8.73;4.50;;;15.20;99.90;;;;;;4991449;28;20228;-81
2022/07/04 02:14:58;;;;;;;8.37;4.17;;;15.10;99.90;;;;;;4992878;28;20706;-81
2022/07/04 02:17:23;;;;;;;9.33;4.80;;;15.10;99.90;;;;;;4993684;28;20451;-81
2022/07/04 02:19:49;;;;;;;11.53;6.50;;;15.10;99.90;;;;;;4993772;28;20262;-81
2022/07/04 02:22:15;;;;;;;5.70;5.17;;;15.00;99.90;;;;;;4993331;28;20687;-81
2022/07/04 02:24:41;;;;;;;10.33;6.50;;;15.00;99.90;;;;;;4993242;28;20216;-81
2022/07/04 02:27:06;;;;;;;8.47;6.93;;;15.00;99.90;;;;;;4993708;28;20896;-81
2022/07/04 02:29:32;;;;;;;9.10;6.30;;;15.00;99.90;;;;;;4993593;28;20230;-81
2022/07/04 02:31:58;;;;;;;8.50;6.50;;;15.00;99.90;;;;;;4993565;28;20223;-81
2022/07/04 02:34:23;;;;;;;6.00;5.03;;;15.00;99.90;;;;;;4993566;28;20208;-81
2022/07/04 02:36:49;;;;;;;8.90;6.23;;;15.00;99.90;;;;;;4993232;28;20198;-81
2022/07/04 02:39:14;;;;;;;10.50;7.33;;;14.90;99.90;;;;;;4992302;28;20190;-81
2022/07/04 02:41:40;;;;;;;9.70;7.10;;;14.90;99.90;;;;;;4993566;28;20172;-81
2022/07/04 02:44:05;;;;;;;9.00;7.97;;;14.90;99.90;;;;;;4993509;28;20176;-84
2022/07/04 02:46:32;;;;;;;14.00;8.27;;;14.90;99.90;;;;;;4993466;28;20529;-82
2022/07/04 02:48:58;;;;;;;11.13;8.67;;;14.90;99.90;;;;;;4993399;28;20207;-81
2022/07/04 02:51:24;;;;;;;11.67;8.10;;;14.80;99.90;;;;;;4993112;28;20407;-80
2022/07/04 02:53:49;;;;;;;11.10;8.37;;;14.70;99.90;;;;;;4993406;28;20179;-81
2022/07/04 02:56:15;;;;;;;12.30;8.63;;;14.80;99.90;;;;;;4993512;28;20176;-83
2022/07/04 02:58:40;;;;;;;10.77;9.60;;;14.80;99.90;;;;;;4997297;28;20180;-81
2022/07/04 03:01:06;;;;;;;13.40;9.87;;;14.80;99.90;;;;;;4997198;28;20172;-81
2022/07/04 03:03:31;;;;;;;15.30;10.47;;;14.70;99.90;;;;;;4997130;28;20184;-81
2022/07/04 03:05:57;;;;;;;13.27;9.97;;;14.80;99.90;;;;;;4997130;28;20176;-81
2022/07/04 03:08:22;;;;;;;16.03;9.70;;;14.80;99.90;;;;;;4996698;28;20699;-81
2022/07/04 03:10:51;;;;;;;13.33;10.23;;;14.80;99.90;;;;;;4997105;28;20179;-81
2022/07/04 03:13:18;;;;;;;11.10;9.60;;;14.70;99.90;;;;;;4997159;28;20180;-81
2022/07/04 03:15:43;;;;;;;12.13;8.40;;;14.70;99.90;;;;;;4997096;28;20457;-81
2022/07/04 03:18:09;;;;;;;12.00;9.60;;;14.70;99.90;;;;;;4996944;28;20439;-80
2022/07/04 03:20:34;;;;;;;12.77;8.73;;;14.70;99.90;;;;;;4997014;28;20260;-80
2022/07/04 03:23:00;;;;;;;12.23;10.07;;;14.70;99.90;;;;;;4996352;28;20222;-81
2022/07/04 03:25:26;;;;;;;10.77;9.27;;;14.70;99.90;;;;;;4996869;28;20175;-80
2022/07/04 03:27:51;;;;;;;12.20;9.50;;;14.70;99.90;;;;;;4996737;28;20199;-81
2022/07/04 03:30:17;;;;;;;10.30;8.90;;;14.70;99.90;;;;;;4996717;28;20429;-80
2022/07/04 03:32:43;;;;;;;10.90;9.20;;;14.70;99.90;;;;;;4996766;28;20270;-82
2022/07/04 03:35:08;;;;;;;9.13;8.10;;;14.60;99.90;;;;;;4996615;28;20637;-80
2022/07/04 03:37:34;;;;;;;11.70;9.40;;;14.60;99.90;;;;;;4996321;28;20168;-81
2022/07/04 03:40:00;;;;;;;12.37;9.27;;;14.60;99.90;;;;;;4996541;28;20172;-81
2022/07/04 03:42:25;;;;;;;13.00;11.07;;;14.60;99.90;;;;;;4996499;28;20576;-80
2022/07/04 03:44:51;;;;;;;12.73;10.30;;;14.60;99.90;;;;;;4996503;28;20182;-81
2022/07/04 03:47:16;;;;;;;16.03;12.27;;;14.60;99.90;;;;;;4996468;28;20675;-80
2022/07/04 03:49:42;;;;;;;11.90;9.90;;;14.60;99.90;;;;;;4996304;28;20203;-80
2022/07/04 03:52:07;;;;;;;13.40;9.70;;;14.60;99.90;;;;;;4996011;28;20172;-81
2022/07/04 03:54:33;;;;;;;13.27;11.70;;;14.60;99.90;;;;;;4996270;28;20579;-80
2022/07/04 03:56:58;;;;;;;18.23;12.87;;;14.60;99.90;;;;;;4996258;28;20195;-80
2022/07/04 03:59:24;;;;;;;16.23;13.43;;;14.60;99.90;;;;;;4996152;28;20222;-80
2022/07/04 04:01:49;;;;;;;16.63;12.97;;;14.70;99.90;;;;;;4996139;28;20168;-80
2022/07/04 04:06:59;;;;;;;17.00;12.67;;;14.60;99.90;;;;;;4995725;28;20175;-81
2022/07/04 04:09:24;;;;;;;21.03;14.23;;;14.60;99.90;;;;;;4995857;28;20826;-80
2022/07/04 04:11:51;;;;;;;21.13;14.60;;;14.60;99.90;;;;;;4994690;28;20178;-80
2022/07/04 04:14:17;;;;;;;17.87;14.70;;;14.60;99.90;;;;;;4995860;28;20261;-80
2022/07/04 04:16:42;;;;;;;21.07;13.13;;;14.60;99.90;;;;;;4995813;28;20501;-80
2022/07/04 04:19:09;;;;;;;14.70;12.93;;;14.60;99.90;;;;;;4995852;28;20215;-80
2022/07/04 04:21:35;;;;;;;14.50;10.90;;;14.60;99.90;;;;;;4995432;28;20195;-80
2022/07/04 04:24:01;;;;;;;14.83;12.40;;;14.60;99.90;;;;;;4995555;28;20494;-80
2022/07/04 04:26:27;;;;;;;15.73;12.23;;;14.60;99.90;;;;;;4995705;28;20983;-80
2022/07/04 04:28:53;;;;;;;17.07;11.83;;;14.60;99.90;;;;;;4995533;28;20588;-80
2022/07/04 04:31:18;;;;;;;12.93;10.10;;;14.60;99.90;;;;;;4995693;28;20186;-80
2022/07/04 04:33:44;;;;;;;13.20;10.70;;;14.60;99.90;;;;;;4994836;28;20225;-81
2022/07/04 04:36:09;;;;;;;12.67;9.07;;;14.60;99.90;;;;;;4994515;28;20775;-80
2022/07/04 04:38:35;;;;;;;13.10;9.43;;;14.70;99.90;;;;;;4996235;28;20172;-80
2022/07/04 04:41:00;;;;;;;10.60;8.13;;;14.70;99.90;;;;;;4996377;28;20531;-81
2022/07/04 04:43:26;;;;;;;11.03;7.23;;;14.80;99.90;;;;;;4995620;28;20183;-81
2022/07/04 04:45:52;;;;;;;10.57;6.67;;;14.80;99.90;;;;;;4994516;28;20171;-82
2022/07/04 04:48:17;;;;;;;8.43;6.77;;;14.90;99.90;;;;;;4995205;28;20195;-80
2022/07/04 04:50:42;;;;;;;13.03;8.30;;;15.00;99.90;;;;;;4994373;28;20183;-81
2022/07/04 04:53:08;;;;;;;12.37;6.70;;;15.00;99.90;;;;;;4994987;28;20172;-81
2022/07/04 04:55:34;;;;;;;12.63;8.27;;;15.10;99.90;;;;;;4995477;28;20226;-81
2022/07/04 04:57:59;;;;;;;11.33;8.87;;;15.20;99.90;;;;;;4995143;28;20178;-81
2022/07/04 05:00:25;;;;;;;16.57;9.50;;;15.20;99.90;;;;;;4995176;28;20544;-81
2022/07/04 05:02:51;;;;;;;9.43;7.33;;;15.30;99.90;;;;;;4993915;28;20272;-81
2022/07/04 05:05:16;;;;;;;10.73;8.10;;;15.40;99.90;;;;;;4993808;28;20183;-81
2022/07/04 05:07:43;;;;;;;8.93;7.60;;;15.40;99.90;;;;;;4994463;28;20419;-81
2022/07/04 05:10:09;;;;;;;12.67;7.50;;;15.50;99.90;;;;;;4994962;28;20195;-81
2022/07/04 05:12:35;;;;;;;8.40;7.30;;;15.50;99.90;;;;;;4994794;28;20422;-81
2022/07/04 05:15:00;;;;;;;10.37;6.97;;;15.60;99.90;;;;;;4994835;28;20781;-82
2022/07/04 05:17:25;;;;;;;10.13;7.57;;;15.60;99.90;;;;;;4995062;28;20187;-83
2022/07/04 05:19:51;;;;;;;7.80;6.00;;;15.60;99.90;;;;;;4993055;28;20203;-81
2022/07/04 05:22:17;;;;;;;9.00;6.67;;;15.70;99.90;;;;;;4994345;28;20173;-83
2022/07/04 05:24:43;;;;;;;6.90;5.03;;;15.80;99.90;;;;;;4994434;28;20309;-82
2022/07/04 05:27:09;;;;;;;8.07;5.37;;;15.80;99.90;;;;;;4994792;28;20448;-81
2022/07/04 05:29:34;;;;;;;7.50;4.63;;;16.00;99.90;;;;;;4994282;28;20303;-82
2022/07/04 05:32:00;;;;;;;5.23;2.80;;;16.10;99.90;;;;;;4994405;28;20417;-82
2022/07/04 05:34:25;;;;;;;7.07;2.97;;;16.40;99.90;;;;;;4996104;28;20594;-86
2022/07/04 05:36:51;;;;;;;3.50;2.10;;;16.50;99.90;;;;;;4994199;28;20179;-81
2022/07/04 05:39:16;;;;;;;8.10;1.80;;;16.60;99.90;;;;;;4993490;28;20184;-82
2022/07/04 05:41:42;;;;;;;2.40;1.40;;;16.50;99.90;;;;;;4994943;28;20173;-82
2022/07/04 05:44:08;;;;;;;4.70;1.77;;;16.30;99.90;;;;;;4993239;28;20174;-82
2022/07/04 05:46:33;;;;;;;4.10;1.10;;;16.50;99.90;;;;;;4994218;28;20165;-81
2022/07/04 05:48:59;;;;;;;2.53;1.07;;;16.80;99.90;;;;;;4992899;28;20220;-84
2022/07/04 05:51:24;;;;;;;3.47;1.00;;;16.90;99.90;;;;;;4993874;28;20198;-83
2022/07/04 05:53:50;;;;;;;2.73;0.63;;;17.20;99.90;;;;;;4994139;28;20514;-81
2022/07/04 05:56:15;;;;;;;3.90;1.20;;;17.40;99.90;;;;;;4992829;28;20179;-82
2022/07/04 05:58:41;;;;;;;4.17;0.73;;;17.50;99.90;;;;;;4993143;28;20179;-81
2022/07/04 06:01:07;;;;;;;1.47;0.30;;;17.70;68.60;;;;;;4993960;28;20267;-82
2022/07/04 06:03:36;;;;;;;2.77;0.77;;;17.80;45.30;;;;;;4994036;28;20653;-81
2022/07/04 06:06:02;;;;;;;2.13;0.53;;;18.10;1.20;;;;;;4994154;28;20828;-81
2022/07/04 06:08:28;;;;;;;4.47;0.97;;;18.40;1.00;;;;;;4993700;28;20458;-81
2022/07/04 06:10:53;;;;;;;4.53;0.50;;;18.70;1.00;;;;;;4993918;28;20847;-81
2022/07/04 06:13:19;;;;;;;2.53;0.77;;;18.80;1.00;;;;;;4993902;28;20183;-80
2022/07/04 06:15:44;;;;;;;2.73;0.60;;;18.60;1.00;;;;;;4993830;28;20185;-82
2022/07/04 06:18:10;;;;;;;2.23;0.60;;;18.90;1.00;;;;;;4993799;28;20177;-82
2022/07/04 06:20:35;;;;;;;2.70;0.93;;;18.70;1.00;;;;;;4993934;28;20174;-81
2022/07/04 06:23:01;;;;;;;5.40;1.03;;;19.00;99.90;;;;;;4993073;28;20216;-82
2022/07/04 06:25:26;;;;;;;1.60;0.30;;;19.10;99.90;;;;;;4993892;28;20529;-82
2022/07/04 06:27:52;;;;;;;2.63;0.77;;;19.00;99.90;;;;;;4992286;28;20248;-81
2022/07/04 06:30:17;;;;;;;4.63;0.60;;;19.30;8.90;;;;;;4993950;28;20174;-81
2022/07/04 06:32:48;;;;;;;1.10;0.30;;;19.50;99.90;;;;;;4997747;28;20181;-81
2022/07/04 06:38:01;;;;;;;1.73;0.30;;;19.80;99.90;;;;;;4997444;28;20917;-83
2022/07/04 06:40:26;;;;;;;7.30;0.83;;;19.40;1.00;;;;;;4996489;28;20747;-81
2022/07/04 06:42:52;;;;;;;2.47;0.73;;;19.70;99.90;;;;;;4997719;28;20176;-82
2022/07/04 06:45:17;;;;;;;4.67;0.97;;;20.00;1.00;;;;;;4998009;28;20216;-84
2022/07/04 06:47:44;;;;;;;3.47;0.67;;;19.80;99.90;;;;;;4997820;28;20170;-82
2022/07/04 06:50:09;;;;;;;5.47;1.57;;;19.30;99.90;;;;;;4997615;28;20263;-81
2022/07/04 06:52:35;;;;;;;3.27;0.40;;;19.60;98.10;;;;;;4995942;28;20426;-81
2022/07/04 06:55:00;;;;;;;2.53;0.70;;;19.40;99.90;;;;;;4997998;28;20538;-82
2022/07/04 06:57:26;;;;;;;3.10;0.90;;;19.00;1.00;;;;;;5003656;28;20205;-84
2022/07/04 06:59:51;;;;;;;2.00;0.73;;;19.40;99.90;;;;;;5005421;28;20179;-89
2022/07/04 07:02:18;;;;;;;3.50;1.23;;;19.70;1.00;;;;;;5002305;28;20554;-85
2022/07/04 07:04:44;;;;;;;2.43;0.60;;;19.90;99.90;;;;;;5002314;28;20177;-83
2022/07/04 07:07:09;;;;;;;3.80;0.57;;;19.10;1.00;;;;;;5000303;28;20413;-87
2022/07/04 07:09:35;;;;;;;2.23;0.50;;;19.40;99.90;;;;;;4999262;28;20222;-91
2022/07/04 07:12:01;;;;;;;1.47;0.63;;;22.70;99.90;;;;;;4999459;28;20175;-88
2022/07/04 07:14:27;;;;;;;1.17;0.70;;;23.80;99.90;;;;;;5002853;28;20178;-90
2022/07/04 07:16:52;;;;;;;0.93;0.40;;;25.10;72.80;;;;;;4999123;28;20415;-82
2022/07/04 07:19:18;;;;;;;2.23;0.60;;;25.30;40.90;;;;;;5001295;28;20256;-81
2022/07/04 07:21:43;;;;;;;2.40;0.70;;;23.60;20.20;;;;;;4999797;28;20275;-87
2022/07/04 07:24:09;;;;;;;1.50;0.50;;;22.40;99.90;;;;;;5002482;28;20760;-86
2022/07/04 07:26:34;;;;;;;1.37;0.33;;;21.30;99.90;;;;;;5002935;28;20173;-87
2022/07/04 07:29:00;;;;;;;3.07;0.40;;;22.80;99.90;;;;;;5001853;28;20221;-84
2022/07/04 07:31:25;;;;;;;1.53;0.43;;;24.60;52.10;;;;;;5002965;28;20709;-83
2022/07/04 07:33:51;;;;;;;2.00;0.60;;;25.00;9.90;;;;;;4999088;28;20208;-81
2022/07/04 07:36:16;;;;;;;2.17;0.90;;;24.20;11.50;;;;;;4996333;28;20540;-82
2022/07/04 07:38:42;;;;;;;2.70;0.40;;;25.50;14.70;;;;;;4996743;28;20258;-82
2022/07/04 07:41:11;;;;;;;1.77;0.50;;;25.70;1.00;;;;;;4997017;28;20172;-82
2022/07/04 07:43:38;;;;;;;2.63;0.30;;;25.30;1.00;;;;;;5000578;28;20178;-85
2022/07/04 07:46:05;;;;;;;3.03;0.20;;;25.30;2.50;;;;;;5004058;28;20415;-87
2022/07/04 07:48:31;;;;;;;3.03;0.20;;;26.30;1.00;;;;;;5002787;28;20469;-85
2022/07/04 07:50:56;;;;;;;3.60;0.40;;;25.50;1.00;;;;;;5003380;28;20430;-84
2022/07/04 07:53:21;;;;;;;2.67;0.20;;;22.20;3.30;;;;;;5001424;28;20230;-87
2022/07/04 07:55:47;;;;;;;2.57;0.33;;;25.00;1.00;;;;;;5004429;28;20172;-85
2022/07/04 07:58:13;;;;;;;1.43;0.30;;;26.00;1.00;;;;;;5004273;28;20212;-91
2022/07/04 08:00:38;;;;;;;1.90;0.20;;;23.80;1.00;;;;;;5002577;28;20632;-90
2022/07/04 08:05:48;;;;;;;2.30;0.47;;;24.10;5.50;;;;;;5008229;28;20186;-82
2022/07/04 08:08:13;;;;;;;2.97;0.30;;;24.90;1.00;;;;;;5006904;28;20466;-91
2022/07/04 08:10:39;;;;;;;3.20;0.60;;;25.80;1.00;;;;;;5027452;23;20267;-89
2022/07/04 08:13:05;;;;;;;1.33;0.30;;;26.40;1.00;;;;;;5022268;28;20175;-81
2022/07/04 08:15:31;;;;;;;2.40;0.20;;;27.30;1.00;;;;;;5016361;28;20186;-85
2022/07/04 08:17:57;;;;;;;1.57;0.30;;;25.20;1.00;;;;;;5021850;28;20445;-83
2022/07/04 08:20:22;;;;;;;2.63;0.83;;;23.70;1.00;;;;;;5022598;28;20496;-88
2022/07/04 08:22:48;;;;;;;0.93;0.30;;;22.30;1.00;;;;;;5023125;28;20265;-83
2022/07/04 08:25:16;;;;;;;2.40;0.27;;;23.40;6.60;;;;;;5021857;28;20171;-83
2022/07/04 08:27:43;;;;;;;2.53;0.20;;;25.80;1.00;;;;;;5023377;28;20171;-86
2022/07/04 08:30:08;;;;;;;1.37;0.50;;;27.10;1.00;;;;;;5023414;28;20406;-84
2022/07/04 08:32:35;;;;;;;2.23;0.30;;;26.70;1.00;;;;;;5022474;28;20436;-88
2022/07/04 08:35:01;;;;;;;2.00;0.30;;;25.70;1.00;;;;;;5020986;28;20176;-85
2022/07/04 08:37:28;;;;;;;1.93;0.40;;;23.60;1.00;;;;;;5025210;28;20452;-83
2022/07/04 08:39:54;;;;;;;4.93;0.40;;;22.30;1.00;;;;;;5026104;28;20449;-88
2022/07/04 08:42:21;;;;;;;1.93;0.30;;;21.50;1.00;;;;;;5026112;28;20418;-83
2022/07/04 08:44:53;;;;;;;3.47;0.57;;;24.30;1.00;;;;;;5025330;28;20167;-83
2022/07/04 08:47:21;;;;;;;2.67;0.30;;;26.10;1.00;;;;;;5025053;28;20414;-83
2022/07/04 08:49:54;;;;;;;2.33;0.33;;;26.00;1.00;;;;;;5023234;28;20552;-81
2022/07/04 08:52:36;;;;;;;1.00;0.20;;;23.50;1.00;;;;;;5014492;28;20413;-86
2022/07/04 08:58:25;;;;;;;2.20;0.30;;;22.10;1.00;;;;;;5014957;28;20413;-84
2022/07/04 09:00:37;;;;;;;2.20;0.30;;;22.10;14.80;;;;;;5014498;28;20982;-81
2022/07/04 09:03:04;;;;;;;1.60;0.40;;;21.40;43.50;;;;;;5006706;28;20467;-84
2022/07/04 09:05:32;;;;;;;2.50;0.60;;;21.20;99.90;;;;;;5013889;28;20440;-82
2022/07/04 09:07:58;;;;;;;1.23;0.30;;;21.30;99.90;;;;;;5014161;28;20788;-87
2022/07/04 09:10:24;;;;;;;1.43;0.23;;;21.70;99.90;;;;;;5013971;28;20473;-80
2022/07/04 09:12:49;;;;;;;1.53;0.30;;;21.20;99.90;;;;;;5009764;28;20431;-80
2022/07/04 09:15:16;;;;;;;0.93;0.30;;;22.40;99.90;;;;;;5001638;28;20418;-82
2022/07/04 09:17:41;;;;;;;1.10;0.30;;;23.20;8.00;;;;;;5002741;28;20175;-84
2022/07/04 09:20:27;;;;;;;0.80;0.20;;;22.70;1.00;;;;;;5003253;28;20411;-84
2022/07/04 09:22:54;;;;;;;1.03;0.20;;;23.40;22.70;;;;;;5002959;28;20645;-83
2022/07/04 09:25:24;;;;;;;1.30;0.20;;;25.60;1.00;;;;;;5003955;28;20421;-82
2022/07/04 09:27:51;;;;;;;2.73;0.40;;;26.30;1.00;;;;;;5003400;28;20422;-80
2022/07/04 09:30:20;;;;;;;1.03;0.20;;;25.60;1.00;;;;;;5001934;28;20411;-84
2022/07/04 09:32:48;;;;;;;1.33;0.20;;;25.00;1.00;;;;;;5002872;28;20860;-83
2022/07/04 09:35:18;;;;;;;2.00;0.30;;;25.70;1.00;;;;;;5003716;28;20448;-84
2022/07/04 09:37:51;;;;;;;1.47;0.33;;;26.00;1.00;;;;;;5002711;28;20415;-86
2022/07/04 09:41:24;;;;;;;2.33;0.20;;;25.90;1.00;;;;;;5001717;28;20415;-83
2022/07/04 09:43:20;;;;;;;1.07;0.30;;;24.40;1.00;;;;;;5003435;28;20403;-83
2022/07/04 09:46:03;;;;;;;1.17;0.30;;;24.20;1.00;;;;;;5013692;28;20468;-81
2022/07/04 09:48:49;;;;;;;2.00;0.30;;;23.40;1.00;;;;;;5013556;28;20210;-84
2022/07/04 09:51:15;;;;;;;1.00;0.20;;;24.40;1.00;;;;;;5013310;28;20418;-85
2022/07/04 09:53:40;;;;;;;1.90;0.20;;;25.40;1.00;;;;;;5013322;28;20402;-82
2022/07/04 09:56:06;;;;;;;2.37;0.40;;;26.90;1.00;;;;;;5012199;28;20589;-84
2022/07/04 09:58:31;;;;;;;2.13;0.30;;;27.30;1.00;;;;;;5012656;28;20202;-83
2022/07/04 10:00:59;;;;;;;1.77;0.20;;;28.60;1.00;;;;;;5013545;28;20230;-86
2022/07/04 10:03:32;;;;;;;2.10;0.30;;;27.70;1.00;;;;;;5013747;28;20542;-87
2022/07/04 10:06:05;;;;;;;2.93;0.20;;;27.40;1.00;;;;;;5013036;28;20925;-86
2022/07/04 10:08:31;;;;;;;4.13;0.20;;;27.40;1.00;;;;;;5013396;28;21023;-86
2022/07/04 10:11:02;;;;;;;2.30;0.43;;;28.20;1.00;;;;;;5013313;28;20461;-89
2022/07/04 10:13:27;;;;;;;0.60;0.20;;;28.50;1.00;;;;;;5013491;28;20457;-82
2022/07/04 10:15:53;;;;;;;1.13;0.20;;;28.70;1.00;;;;;;5012115;28;20977;-80
2022/07/04 10:18:21;;;;;;;0.77;0.20;;;29.10;1.00;;;;;;5013452;28;20171;-81
2022/07/04 10:20:48;;;;;;;0.60;0.30;;;28.10;1.00;;;;;;5013099;28;20859;-80
2022/07/04 10:23:14;;;;;;;1.43;0.33;;;28.50;1.00;;;;;;5013300;28;20941;-79
2022/07/04 10:25:41;;;;;;;1.83;0.20;;;28.60;1.00;;;;;;5013218;28;20414;-78
2022/07/04 10:28:08;;;;;;;1.07;0.20;;;29.20;1.00;;;;;;5011879;28;20198;-78
2022/07/04 10:30:36;;;;;;;2.50;0.20;;;27.50;1.00;;;;;;5013243;28;20422;-78
2022/07/04 10:33:04;;;;;;;1.07;0.20;;;25.50;1.00;;;;;;5013277;28;20417;-80
2022/07/04 10:35:49;;;;;;;0.60;0.30;;;24.60;1.00;;;;;;5011564;28;20923;-79
2022/07/04 10:38:17;;;;;;;1.07;0.40;;;25.90;1.00;;;;;;5018813;28;20441;-81
2022/07/04 10:40:43;;;;;;;0.90;0.20;;;26.10;1.00;;;;;;5031704;28;20425;-82
2022/07/04 10:43:37;;;;;;;2.40;0.20;;;27.20;1.00;;;;;;5032559;28;20413;-82
2022/07/04 10:46:06;;;;;;;1.63;0.30;;;28.00;1.00;;;;;;5033009;28;20441;-83
2022/07/04 10:48:32;;;;;;;0.50;0.20;;;28.80;1.00;;;;;;5014435;28;20465;-85
2022/07/04 10:51:05;;;;;;;2.50;0.47;;;29.40;1.00;;;;;;5012671;28;20918;-81
2022/07/04 10:53:52;;;;;;;1.13;0.20;;;29.50;1.00;;;;;;5013112;28;20412;-83
2022/07/04 10:56:18;;;;;;;1.70;0.33;;;28.40;1.00;;;;;;5012887;28;20438;-83
2022/07/04 10:58:43;;;;;;;1.00;0.30;;;29.40;1.00;;;;;;5011856;28;20425;-80
2022/07/04 11:01:16;;;;;;;1.37;0.20;;;29.40;1.00;;;;;;5012973;28;20171;-83
2022/07/04 11:03:47;;;;;;;2.20;0.20;;;28.50;1.00;;;;;;5012906;28;20179;-79
2022/07/04 11:06:31;;;;;;;0.80;0.33;;;28.40;1.00;;;;;;5012674;28;20418;-83
2022/07/04 11:09:22;;;;;;;1.40;0.20;;;28.60;1.00;;;;;;5012753;28;20464;-79
2022/07/04 11:11:51;;;;;;;0.43;0.20;;;29.30;1.00;;;;;;5012697;28;20461;-80
2022/07/04 11:14:37;;;;;;;0.40;0.20;;;29.90;1.00;;;;;;5012897;28;20759;-80
2022/07/04 11:17:04;;;;;;;1.33;0.20;;;30.70;1.00;;;;;;5011690;28;20488;-81
2022/07/04 11:19:30;;;;;;;0.87;0.43;;;29.90;1.00;;;;;;5016404;28;20417;-83
2022/07/04 11:21:56;;;;;;;1.70;0.20;;;29.30;1.00;;;;;;5016122;28;20481;-80
2022/07/04 11:24:22;;;;;;;2.13;0.40;;;28.50;1.00;;;;;;5016577;28;20228;-84
2022/07/04 11:26:48;;;;;;;0.50;0.20;;;28.10;1.00;;;;;;5016403;28;20424;-79
2022/07/04 11:29:15;;;;;;;2.00;0.20;;;28.30;1.00;;;;;;5016223;28;21021;-83
2022/07/04 11:31:49;;;;;;;1.37;0.20;;;29.40;1.00;;;;;;5016383;28;20480;-81
2022/07/04 11:34:15;;;;;;;1.13;0.23;;;29.60;1.00;;;;;;5016273;28;20444;-82
2022/07/04 11:36:42;;;;;;;0.63;0.20;;;29.80;1.00;;;;;;5015887;28;20449;-80
2022/07/04 11:39:21;;;;;;;0.73;0.20;;;28.30;1.00;;;;;;5016254;28;20186;-81
2022/07/04 11:47:41;;;;;;;1.10;0.20;;;26.60;1.00;;;;;;4974760;28;20439;-84
2022/07/04 11:50:09;;;;;;;1.80;0.57;;;26.20;1.00;;;;;;5006129;28;20873;-84
2022/07/04 11:52:37;;;;;;;2.07;0.40;;;25.70;1.00;;;;;;5015963;28;20516;-81
2022/07/04 11:55:08;;;;;;;1.87;0.30;;;25.60;1.00;;;;;;5015912;28;20859;-83
2022/07/04 11:57:36;;;;;;;2.33;0.33;;;25.70;1.00;;;;;;5015951;28;20420;-86
2022/07/04 12:00:15;;;;;;;1.57;0.30;;;26.60;1.00;;;;;;5015876;28;20420;-86
2022/07/04 12:02:42;;;;;;;1.23;0.20;;;27.90;1.00;;;;;;5015669;28;20409;-84
2022/07/04 12:05:10;;;;;;;1.50;0.30;;;29.20;1.00;;;;;;5014076;28;20825;-84
2022/07/04 12:07:37;;;;;;;0.50;0.20;;;29.30;1.00;;;;;;5015679;28;20793;-82
2022/07/04 12:10:21;;;;;;;0.80;0.30;;;29.20;1.00;;;;;;5014054;28;20486;-85
2022/07/04 12:13:14;;;;;;;0.43;0.20;;;29.10;1.00;;;;;;5015576;28;20946;-85
2022/07/04 12:15:42;;;;;;;3.03;0.40;;;29.50;1.00;;;;;;5015519;28;20457;-83
2022/07/04 12:18:40;;;;;;;0.57;0.27;;;29.50;1.00;;;;;;5015460;28;20407;-80
2022/07/04 12:21:17;;;;;;;1.63;0.40;;;29.60;1.00;;;;;;5002955;28;20525;-84
2022/07/04 12:23:50;;;;;;;2.53;0.60;;;29.70;1.00;;;;;;5015348;28;20414;-84
2022/07/04 12:26:16;;;;;;;0.60;0.20;;;29.30;1.00;;;;;;5015244;28;20922;-82
2022/07/04 12:28:41;;;;;;;0.97;0.30;;;29.30;1.00;;;;;;5015155;28;20476;-82
2022/07/04 12:31:08;;;;;;;0.80;0.40;;;28.30;1.00;;;;;;5015223;28;20179;-82
2022/07/04 12:33:33;;;;;;;1.60;0.30;;;28.40;1.00;;;;;;5015269;28;20254;-80
2022/07/04 12:36:02;;;;;;;0.80;0.20;;;28.40;1.00;;;;;;5014814;28;20449;-82
2022/07/04 12:38:27;;;;;;;1.03;0.30;;;27.20;1.00;;;;;;5015058;28;20179;-84
2022/07/04 12:41:01;;;;;;;1.37;0.40;;;26.50;1.00;;;;;;5015074;28;20552;-84
2022/07/04 12:43:39;;;;;;;1.43;0.60;;;25.90;1.00;;;;;;5015049;28;20646;-84
2022/07/04 12:46:06;;;;;;;0.40;0.23;;;25.70;1.00;;;;;;5014879;28;20422;-82
2022/07/04 12:48:32;;;;;;;1.47;0.30;;;25.30;1.00;;;;;;5014772;28;20831;-83
2022/07/04 12:51:22;;;;;;;2.40;0.30;;;24.80;1.00;;;;;;5014456;28;20427;-84
2022/07/04 12:53:50;;;;;;;1.43;0.40;;;24.20;1.00;;;;;;5014775;28;20171;-83
2022/07/04 12:56:33;;;;;;;3.90;1.03;;;24.00;1.00;;;;;;5013411;28;20564;-86
2022/07/04 12:59:03;;;;;;;1.03;0.30;;;24.00;1.00;;;;;;5014687;28;20413;-83
2022/07/04 13:01:30;;;;;;;0.77;0.60;;;24.80;1.00;;;;;;5014711;28;20394;-84
2022/07/04 13:03:56;;;;;;;1.90;0.37;;;26.60;1.00;;;;;;5014621;28;20429;-82
2022/07/04 13:06:21;;;;;;;0.53;0.20;;;27.50;1.00;;;;;;5014179;28;20493;-86
2022/07/04 13:08:47;;;;;;;0.97;0.20;;;27.50;1.00;;;;;;5014440;28;20600;-88
2022/07/04 13:13:56;;;;;;;3.10;0.70;;;26.30;1.00;;;;;;5014408;28;20221;-86